sensor_id;sensor_type;location;lat;lon;timestamp;P1;durP1;ratioP1;P2;durP2;ratioP2
12076;SDS011;12420;42.676;23.262;2023-12-14T00:00:37;19.87;;;14.33;;
12076;SDS011;12420;42.676;23.262;2023-12-14T00:03:04;21.60;;;15.17;;
12076;SDS011;12420;42.676;23.262;2023-12-14T00:05:32;20.80;;;14.80;;
12076;SDS011;12420;42.676;23.262;2023-12-14T00:08:00;19.43;;;14.07;;
12076;SDS011;12420;42.676;23.262;2023-12-14T00:10:27;21.47;;;14.87;;
12076;SDS011;12420;42.676;23.262;2023-12-14T00:12:53;18.40;;;13.60;;
12076;SDS011;12420;42.676;23.262;2023-12-14T00:15:20;21.30;;;14.13;;
12076;SDS011;12420;42.676;23.262;2023-12-14T00:17:47;19.13;;;14.13;;
12076;SDS011;12420;42.676;23.262;2023-12-14T00:20:14;18.70;;;13.37;;
12076;SDS011;12420;42.676;23.262;2023-12-14T00:22:42;20.10;;;14.80;;
12076;SDS011;12420;42.676;23.262;2023-12-14T00:25:09;18.83;;;13.47;;
12076;SDS011;12420;42.676;23.262;2023-12-14T00:27:35;19.30;;;13.27;;
12076;SDS011;12420;42.676;23.262;2023-12-14T00:30:02;20.80;;;13.33;;
12076;SDS011;12420;42.676;23.262;2023-12-14T00:32:30;28.80;;;19.77;;
12076;SDS011;12420;42.676;23.262;2023-12-14T00:34:56;25.57;;;16.50;;
12076;SDS011;12420;42.676;23.262;2023-12-14T00:37:23;22.03;;;16.33;;
12076;SDS011;12420;42.676;23.262;2023-12-14T00:39:51;23.57;;;15.93;;
12076;SDS011;12420;42.676;23.262;2023-12-14T00:42:19;20.60;;;14.63;;
12076;SDS011;12420;42.676;23.262;2023-12-14T00:44:46;19.70;;;13.53;;
12076;SDS011;12420;42.676;23.262;2023-12-14T00:47:13;21.27;;;14.67;;
12076;SDS011;12420;42.676;23.262;2023-12-14T00:49:39;19.47;;;14.07;;
12076;SDS011;12420;42.676;23.262;2023-12-14T00:52:06;19.10;;;14.00;;
12076;SDS011;12420;42.676;23.262;2023-12-14T00:54:33;19.23;;;14.00;;
12076;SDS011;12420;42.676;23.262;2023-12-14T00:57:01;24.23;;;15.37;;
12076;SDS011;12420;42.676;23.262;2023-12-14T00:59:29;20.20;;;14.13;;
12076;SDS011;12420;42.676;23.262;2023-12-14T01:01:56;18.03;;;12.77;;
12076;SDS011;12420;42.676;23.262;2023-12-14T01:04:23;18.33;;;13.57;;
12076;SDS011;12420;42.676;23.262;2023-12-14T01:06:49;18.60;;;14.33;;
12076;SDS011;12420;42.676;23.262;2023-12-14T01:09:16;20.40;;;14.10;;
12076;SDS011;12420;42.676;23.262;2023-12-14T01:11:43;18.43;;;13.73;;
12076;SDS011;12420;42.676;23.262;2023-12-14T01:14:13;19.07;;;13.87;;
12076;SDS011;12420;42.676;23.262;2023-12-14T01:16:40;20.23;;;13.77;;
12076;SDS011;12420;42.676;23.262;2023-12-14T01:19:06;22.70;;;14.87;;
12076;SDS011;12420;42.676;23.262;2023-12-14T01:21:33;23.73;;;14.70;;
12076;SDS011;12420;42.676;23.262;2023-12-14T01:24:00;21.40;;;15.23;;
12076;SDS011;12420;42.676;23.262;2023-12-14T01:26:27;19.80;;;14.63;;
12076;SDS011;12420;42.676;23.262;2023-12-14T01:28:54;24.00;;;15.23;;
12076;SDS011;12420;42.676;23.262;2023-12-14T01:31:22;20.00;;;15.03;;
12076;SDS011;12420;42.676;23.262;2023-12-14T01:33:49;22.83;;;16.03;;
12076;SDS011;12420;42.676;23.262;2023-12-14T01:36:19;21.23;;;15.87;;
12076;SDS011;12420;42.676;23.262;2023-12-14T01:38:46;21.93;;;15.17;;
12076;SDS011;12420;42.676;23.262;2023-12-14T01:41:13;19.27;;;14.00;;
12076;SDS011;12420;42.676;23.262;2023-12-14T01:43:40;23.90;;;15.30;;
12076;SDS011;12420;42.676;23.262;2023-12-14T01:46:07;23.93;;;16.00;;
12076;SDS011;12420;42.676;23.262;2023-12-14T01:48:35;22.63;;;15.87;;
12076;SDS011;12420;42.676;23.262;2023-12-14T01:51:02;25.00;;;15.63;;
12076;SDS011;12420;42.676;23.262;2023-12-14T01:53:29;24.10;;;16.43;;
12076;SDS011;12420;42.676;23.262;2023-12-14T01:55:56;21.83;;;15.93;;
12076;SDS011;12420;42.676;23.262;2023-12-14T01:58:23;22.53;;;15.17;;
12076;SDS011;12420;42.676;23.262;2023-12-14T02:00:52;23.87;;;16.03;;
12076;SDS011;12420;42.676;23.262;2023-12-14T02:03:23;22.53;;;15.70;;
12076;SDS011;12420;42.676;23.262;2023-12-14T02:05:51;20.87;;;14.03;;
12076;SDS011;12420;42.676;23.262;2023-12-14T02:08:18;20.23;;;13.43;;
12076;SDS011;12420;42.676;23.262;2023-12-14T02:10:44;18.93;;;13.33;;
12076;SDS011;12420;42.676;23.262;2023-12-14T02:13:11;21.97;;;13.00;;
12076;SDS011;12420;42.676;23.262;2023-12-14T02:15:38;17.13;;;12.43;;
12076;SDS011;12420;42.676;23.262;2023-12-14T02:18:05;22.23;;;13.60;;
12076;SDS011;12420;42.676;23.262;2023-12-14T02:20:31;18.83;;;12.57;;
12076;SDS011;12420;42.676;23.262;2023-12-14T02:22:59;20.77;;;13.23;;
12076;SDS011;12420;42.676;23.262;2023-12-14T02:25:26;17.40;;;12.40;;
12076;SDS011;12420;42.676;23.262;2023-12-14T02:27:53;20.13;;;12.27;;
12076;SDS011;12420;42.676;23.262;2023-12-14T02:30:20;18.23;;;12.20;;
12076;SDS011;12420;42.676;23.262;2023-12-14T02:32:47;20.13;;;13.27;;
12076;SDS011;12420;42.676;23.262;2023-12-14T02:35:13;19.43;;;13.47;;
12076;SDS011;12420;42.676;23.262;2023-12-14T02:37:40;14.77;;;10.77;;
12076;SDS011;12420;42.676;23.262;2023-12-14T02:40:10;17.53;;;11.40;;
12076;SDS011;12420;42.676;23.262;2023-12-14T02:42:37;12.40;;;9.37;;
12076;SDS011;12420;42.676;23.262;2023-12-14T02:45:06;11.37;;;9.37;;
12076;SDS011;12420;42.676;23.262;2023-12-14T02:47:37;10.73;;;8.37;;
12076;SDS011;12420;42.676;23.262;2023-12-14T02:50:17;10.33;;;8.07;;
12076;SDS011;12420;42.676;23.262;2023-12-14T02:52:44;12.23;;;8.57;;
12076;SDS011;12420;42.676;23.262;2023-12-14T02:55:12;12.23;;;8.83;;
12076;SDS011;12420;42.676;23.262;2023-12-14T02:57:40;11.40;;;8.47;;
12076;SDS011;12420;42.676;23.262;2023-12-14T03:00:08;12.70;;;8.83;;
12076;SDS011;12420;42.676;23.262;2023-12-14T03:02:35;10.70;;;8.17;;
12076;SDS011;12420;42.676;23.262;2023-12-14T03:05:02;11.13;;;8.37;;
12076;SDS011;12420;42.676;23.262;2023-12-14T03:07:29;18.37;;;11.80;;
12076;SDS011;12420;42.676;23.262;2023-12-14T03:09:56;12.93;;;8.70;;
12076;SDS011;12420;42.676;23.262;2023-12-14T03:12:24;12.23;;;8.53;;
12076;SDS011;12420;42.676;23.262;2023-12-14T03:14:51;12.37;;;8.97;;
12076;SDS011;12420;42.676;23.262;2023-12-14T03:17:17;11.93;;;8.87;;
12076;SDS011;12420;42.676;23.262;2023-12-14T03:19:44;11.17;;;8.53;;
12076;SDS011;12420;42.676;23.262;2023-12-14T03:22:11;10.97;;;8.50;;
12076;SDS011;12420;42.676;23.262;2023-12-14T03:24:38;12.33;;;9.10;;
12076;SDS011;12420;42.676;23.262;2023-12-14T03:27:04;11.03;;;8.10;;
12076;SDS011;12420;42.676;23.262;2023-12-14T03:29:33;12.77;;;7.90;;
12076;SDS011;12420;42.676;23.262;2023-12-14T03:32:00;15.57;;;12.87;;
12076;SDS011;12420;42.676;23.262;2023-12-14T03:34:26;10.20;;;7.87;;
12076;SDS011;12420;42.676;23.262;2023-12-14T03:36:53;13.13;;;8.10;;
12076;SDS011;12420;42.676;23.262;2023-12-14T03:39:20;8.60;;;7.20;;
12076;SDS011;12420;42.676;23.262;2023-12-14T03:41:47;10.83;;;7.60;;
12076;SDS011;12420;42.676;23.262;2023-12-14T03:44:14;8.50;;;6.67;;
12076;SDS011;12420;42.676;23.262;2023-12-14T03:46:42;6.93;;;5.97;;
12076;SDS011;12420;42.676;23.262;2023-12-14T03:49:09;8.07;;;6.43;;
12076;SDS011;12420;42.676;23.262;2023-12-14T03:51:35;6.70;;;6.00;;
12076;SDS011;12420;42.676;23.262;2023-12-14T03:54:02;9.40;;;6.40;;
12076;SDS011;12420;42.676;23.262;2023-12-14T03:56:29;8.13;;;6.47;;
12076;SDS011;12420;42.676;23.262;2023-12-14T03:58:56;9.03;;;6.23;;
12076;SDS011;12420;42.676;23.262;2023-12-14T04:01:23;7.30;;;5.97;;
12076;SDS011;12420;42.676;23.262;2023-12-14T04:03:51;8.70;;;5.87;;
12076;SDS011;12420;42.676;23.262;2023-12-14T04:06:18;9.43;;;6.17;;
12076;SDS011;12420;42.676;23.262;2023-12-14T04:08:44;7.73;;;6.30;;
12076;SDS011;12420;42.676;23.262;2023-12-14T04:11:11;9.97;;;6.70;;
12076;SDS011;12420;42.676;23.262;2023-12-14T04:13:38;7.07;;;6.37;;
12076;SDS011;12420;42.676;23.262;2023-12-14T04:16:05;8.27;;;6.57;;
12076;SDS011;12420;42.676;23.262;2023-12-14T04:18:32;8.70;;;6.80;;
12076;SDS011;12420;42.676;23.262;2023-12-14T04:21:01;8.60;;;6.53;;
12076;SDS011;12420;42.676;23.262;2023-12-14T04:23:27;9.20;;;6.57;;
12076;SDS011;12420;42.676;23.262;2023-12-14T04:25:54;9.20;;;7.23;;
12076;SDS011;12420;42.676;23.262;2023-12-14T04:28:21;9.40;;;7.07;;
12076;SDS011;12420;42.676;23.262;2023-12-14T04:30:48;9.83;;;7.70;;
12076;SDS011;12420;42.676;23.262;2023-12-14T04:33:14;10.70;;;8.67;;
12076;SDS011;12420;42.676;23.262;2023-12-14T04:35:41;8.87;;;7.33;;
12076;SDS011;12420;42.676;23.262;2023-12-14T04:38:09;11.67;;;7.90;;
12076;SDS011;12420;42.676;23.262;2023-12-14T04:40:36;11.40;;;7.73;;
12076;SDS011;12420;42.676;23.262;2023-12-14T04:43:03;10.50;;;6.87;;
12076;SDS011;12420;42.676;23.262;2023-12-14T04:45:32;9.07;;;7.10;;
12076;SDS011;12420;42.676;23.262;2023-12-14T04:47:58;8.33;;;6.97;;
12076;SDS011;12420;42.676;23.262;2023-12-14T04:50:25;10.27;;;7.27;;
12076;SDS011;12420;42.676;23.262;2023-12-14T04:52:52;8.80;;;6.87;;
12076;SDS011;12420;42.676;23.262;2023-12-14T04:55:20;9.43;;;7.10;;
12076;SDS011;12420;42.676;23.262;2023-12-14T04:57:47;9.03;;;7.07;;
12076;SDS011;12420;42.676;23.262;2023-12-14T05:00:14;10.50;;;7.07;;
12076;SDS011;12420;42.676;23.262;2023-12-14T05:02:42;9.40;;;7.53;;
12076;SDS011;12420;42.676;23.262;2023-12-14T05:05:13;8.50;;;7.23;;
12076;SDS011;12420;42.676;23.262;2023-12-14T05:07:40;10.40;;;7.70;;
12076;SDS011;12420;42.676;23.262;2023-12-14T05:10:07;9.47;;;7.97;;
12076;SDS011;12420;42.676;23.262;2023-12-14T05:12:36;11.57;;;8.37;;
12076;SDS011;12420;42.676;23.262;2023-12-14T05:15:03;11.50;;;9.03;;
12076;SDS011;12420;42.676;23.262;2023-12-14T05:17:31;12.67;;;8.33;;
12076;SDS011;12420;42.676;23.262;2023-12-14T05:19:57;11.13;;;8.20;;
12076;SDS011;12420;42.676;23.262;2023-12-14T05:22:25;11.10;;;8.53;;
12076;SDS011;12420;42.676;23.262;2023-12-14T05:24:51;15.13;;;9.33;;
12076;SDS011;12420;42.676;23.262;2023-12-14T05:27:18;12.83;;;8.30;;
12076;SDS011;12420;42.676;23.262;2023-12-14T05:29:46;11.23;;;8.37;;
12076;SDS011;12420;42.676;23.262;2023-12-14T05:32:13;11.53;;;8.90;;
12076;SDS011;12420;42.676;23.262;2023-12-14T05:34:39;12.67;;;9.43;;
12076;SDS011;12420;42.676;23.262;2023-12-14T05:37:06;14.70;;;9.13;;
12076;SDS011;12420;42.676;23.262;2023-12-14T05:39:33;14.67;;;9.03;;
12076;SDS011;12420;42.676;23.262;2023-12-14T05:42:00;14.33;;;8.93;;
12076;SDS011;12420;42.676;23.262;2023-12-14T05:44:26;12.60;;;9.07;;
12076;SDS011;12420;42.676;23.262;2023-12-14T05:46:55;11.90;;;9.00;;
12076;SDS011;12420;42.676;23.262;2023-12-14T05:49:21;13.90;;;8.80;;
12076;SDS011;12420;42.676;23.262;2023-12-14T05:51:48;38.30;;;24.53;;
12076;SDS011;12420;42.676;23.262;2023-12-14T05:54:15;38.70;;;24.43;;
12076;SDS011;12420;42.676;23.262;2023-12-14T05:56:42;40.87;;;25.17;;
12076;SDS011;12420;42.676;23.262;2023-12-14T05:59:08;23.43;;;15.80;;
12076;SDS011;12420;42.676;23.262;2023-12-14T06:01:37;20.77;;;14.10;;
12076;SDS011;12420;42.676;23.262;2023-12-14T06:04:06;16.37;;;11.50;;
12076;SDS011;12420;42.676;23.262;2023-12-14T06:06:32;15.97;;;11.07;;
12076;SDS011;12420;42.676;23.262;2023-12-14T06:08:59;20.67;;;12.87;;
12076;SDS011;12420;42.676;23.262;2023-12-14T06:11:26;20.23;;;11.73;;
12076;SDS011;12420;42.676;23.262;2023-12-14T06:13:53;16.60;;;11.10;;
12076;SDS011;12420;42.676;23.262;2023-12-14T06:16:19;16.57;;;11.20;;
12076;SDS011;12420;42.676;23.262;2023-12-14T06:18:46;17.27;;;11.07;;
12076;SDS011;12420;42.676;23.262;2023-12-14T06:21:14;17.00;;;12.13;;
12076;SDS011;12420;42.676;23.262;2023-12-14T06:23:41;13.47;;;9.70;;
12076;SDS011;12420;42.676;23.262;2023-12-14T06:26:08;10.37;;;7.37;;
12076;SDS011;12420;42.676;23.262;2023-12-14T06:28:34;11.73;;;9.47;;
12076;SDS011;12420;42.676;23.262;2023-12-14T06:31:01;11.67;;;9.30;;
12076;SDS011;12420;42.676;23.262;2023-12-14T06:33:28;14.23;;;9.70;;
12076;SDS011;12420;42.676;23.262;2023-12-14T06:35:55;16.80;;;12.30;;
12076;SDS011;12420;42.676;23.262;2023-12-14T06:38:23;16.33;;;11.47;;
12076;SDS011;12420;42.676;23.262;2023-12-14T06:40:50;16.63;;;10.83;;
12076;SDS011;12420;42.676;23.262;2023-12-14T06:43:16;15.83;;;11.00;;
12076;SDS011;12420;42.676;23.262;2023-12-14T06:45:43;17.27;;;11.47;;
12076;SDS011;12420;42.676;23.262;2023-12-14T06:48:10;16.57;;;11.80;;
12076;SDS011;12420;42.676;23.262;2023-12-14T06:50:37;18.13;;;12.13;;
12076;SDS011;12420;42.676;23.262;2023-12-14T06:53:04;19.00;;;12.50;;
12076;SDS011;12420;42.676;23.262;2023-12-14T06:55:32;16.70;;;11.87;;
12076;SDS011;12420;42.676;23.262;2023-12-14T06:57:59;18.10;;;12.47;;
12076;SDS011;12420;42.676;23.262;2023-12-14T07:00:25;21.23;;;12.77;;
12076;SDS011;12420;42.676;23.262;2023-12-14T07:02:54;15.70;;;12.00;;
12076;SDS011;12420;42.676;23.262;2023-12-14T07:05:21;14.40;;;11.37;;
12076;SDS011;12420;42.676;23.262;2023-12-14T07:07:48;21.83;;;14.30;;
12076;SDS011;12420;42.676;23.262;2023-12-14T07:10:14;23.80;;;14.53;;
12076;SDS011;12420;42.676;23.262;2023-12-14T07:12:42;25.43;;;14.70;;
12076;SDS011;12420;42.676;23.262;2023-12-14T07:15:09;16.90;;;11.70;;
12076;SDS011;12420;42.676;23.262;2023-12-14T07:17:36;17.60;;;10.87;;
12076;SDS011;12420;42.676;23.262;2023-12-14T07:20:03;19.30;;;12.60;;
12076;SDS011;12420;42.676;23.262;2023-12-14T07:22:33;16.07;;;10.70;;
12076;SDS011;12420;42.676;23.262;2023-12-14T07:25:00;20.97;;;13.50;;
12076;SDS011;12420;42.676;23.262;2023-12-14T07:27:27;19.80;;;13.27;;
12076;SDS011;12420;42.676;23.262;2023-12-14T07:29:55;18.20;;;11.77;;
12076;SDS011;12420;42.676;23.262;2023-12-14T07:32:22;20.73;;;12.17;;
12076;SDS011;12420;42.676;23.262;2023-12-14T07:34:48;16.27;;;11.20;;
12076;SDS011;12420;42.676;23.262;2023-12-14T07:37:15;13.67;;;9.90;;
12076;SDS011;12420;42.676;23.262;2023-12-14T07:39:42;15.80;;;10.50;;
12076;SDS011;12420;42.676;23.262;2023-12-14T07:42:08;16.30;;;11.33;;
12076;SDS011;12420;42.676;23.262;2023-12-14T07:44:35;19.43;;;11.47;;
12076;SDS011;12420;42.676;23.262;2023-12-14T07:47:04;17.00;;;11.60;;
12076;SDS011;12420;42.676;23.262;2023-12-14T07:49:30;18.53;;;12.97;;
12076;SDS011;12420;42.676;23.262;2023-12-14T07:51:57;18.20;;;11.67;;
12076;SDS011;12420;42.676;23.262;2023-12-14T07:54:24;19.27;;;13.53;;
12076;SDS011;12420;42.676;23.262;2023-12-14T07:56:52;19.30;;;12.03;;
12076;SDS011;12420;42.676;23.262;2023-12-14T07:59:18;18.43;;;12.67;;
12076;SDS011;12420;42.676;23.262;2023-12-14T08:01:45;22.87;;;12.67;;
12076;SDS011;12420;42.676;23.262;2023-12-14T08:04:14;15.97;;;10.53;;
12076;SDS011;12420;42.676;23.262;2023-12-14T08:06:41;14.87;;;10.70;;
12076;SDS011;12420;42.676;23.262;2023-12-14T08:09:07;16.97;;;10.07;;
12076;SDS011;12420;42.676;23.262;2023-12-14T08:11:35;17.07;;;9.87;;
12076;SDS011;12420;42.676;23.262;2023-12-14T08:14:02;15.63;;;8.63;;
12076;SDS011;12420;42.676;23.262;2023-12-14T08:16:29;15.57;;;9.20;;
12076;SDS011;12420;42.676;23.262;2023-12-14T08:18:55;12.00;;;7.40;;
12076;SDS011;12420;42.676;23.262;2023-12-14T08:21:24;12.10;;;7.43;;
12076;SDS011;12420;42.676;23.262;2023-12-14T08:23:50;9.33;;;6.60;;
12076;SDS011;12420;42.676;23.262;2023-12-14T08:26:17;12.07;;;6.87;;
12076;SDS011;12420;42.676;23.262;2023-12-14T08:28:44;15.20;;;6.90;;
12076;SDS011;12420;42.676;23.262;2023-12-14T08:31:10;8.77;;;6.60;;
12076;SDS011;12420;42.676;23.262;2023-12-14T08:33:37;16.27;;;6.73;;
12076;SDS011;12420;42.676;23.262;2023-12-14T08:36:04;12.47;;;6.50;;
12076;SDS011;12420;42.676;23.262;2023-12-14T08:38:33;10.17;;;6.20;;
12076;SDS011;12420;42.676;23.262;2023-12-14T08:40:59;10.60;;;6.73;;
12076;SDS011;12420;42.676;23.262;2023-12-14T08:43:26;9.90;;;6.33;;
12076;SDS011;12420;42.676;23.262;2023-12-14T08:45:53;7.87;;;6.27;;
12076;SDS011;12420;42.676;23.262;2023-12-14T08:48:20;11.80;;;6.57;;
12076;SDS011;12420;42.676;23.262;2023-12-14T08:50:47;8.10;;;6.03;;
12076;SDS011;12420;42.676;23.262;2023-12-14T08:53:13;10.87;;;5.57;;
12076;SDS011;12420;42.676;23.262;2023-12-14T08:55:41;9.77;;;6.30;;
12076;SDS011;12420;42.676;23.262;2023-12-14T08:58:08;20.73;;;10.80;;
12076;SDS011;12420;42.676;23.262;2023-12-14T09:00:35;18.40;;;10.00;;
12076;SDS011;12420;42.676;23.262;2023-12-14T09:03:02;13.87;;;6.90;;
12076;SDS011;12420;42.676;23.262;2023-12-14T09:05:28;12.13;;;6.10;;
12076;SDS011;12420;42.676;23.262;2023-12-14T09:07:55;9.30;;;5.70;;
12076;SDS011;12420;42.676;23.262;2023-12-14T09:10:24;12.27;;;6.13;;
12076;SDS011;12420;42.676;23.262;2023-12-14T09:12:52;13.23;;;6.00;;
12076;SDS011;12420;42.676;23.262;2023-12-14T09:15:19;10.80;;;6.20;;
12076;SDS011;12420;42.676;23.262;2023-12-14T09:17:46;14.13;;;6.20;;
12076;SDS011;12420;42.676;23.262;2023-12-14T09:20:12;13.30;;;5.90;;
12076;SDS011;12420;42.676;23.262;2023-12-14T09:22:39;12.23;;;5.10;;
12076;SDS011;12420;42.676;23.262;2023-12-14T09:25:06;12.90;;;5.70;;
12076;SDS011;12420;42.676;23.262;2023-12-14T09:27:34;9.33;;;5.10;;
12076;SDS011;12420;42.676;23.262;2023-12-14T09:30:03;11.90;;;5.47;;
12076;SDS011;12420;42.676;23.262;2023-12-14T09:32:31;12.03;;;5.40;;
12076;SDS011;12420;42.676;23.262;2023-12-14T09:34:57;11.57;;;5.30;;
12076;SDS011;12420;42.676;23.262;2023-12-14T09:37:24;9.30;;;5.13;;
12076;SDS011;12420;42.676;23.262;2023-12-14T09:39:53;10.00;;;5.30;;
12076;SDS011;12420;42.676;23.262;2023-12-14T09:42:20;8.63;;;4.80;;
12076;SDS011;12420;42.676;23.262;2023-12-14T09:44:47;10.93;;;5.20;;
12076;SDS011;12420;42.676;23.262;2023-12-14T09:47:17;9.97;;;4.93;;
12076;SDS011;12420;42.676;23.262;2023-12-14T09:49:43;8.07;;;4.70;;
12076;SDS011;12420;42.676;23.262;2023-12-14T09:52:12;5.33;;;4.70;;
12076;SDS011;12420;42.676;23.262;2023-12-14T09:54:39;11.10;;;5.33;;
12076;SDS011;12420;42.676;23.262;2023-12-14T09:57:05;13.27;;;5.03;;
12076;SDS011;12420;42.676;23.262;2023-12-14T09:59:32;8.83;;;5.07;;
12076;SDS011;12420;42.676;23.262;2023-12-14T10:04:46;7.57;;;5.70;;
12076;SDS011;12420;42.676;23.262;2023-12-14T10:07:13;10.23;;;5.97;;
12076;SDS011;12420;42.676;23.262;2023-12-14T10:09:40;9.00;;;6.00;;
12076;SDS011;12420;42.676;23.262;2023-12-14T10:12:07;15.10;;;6.73;;
12076;SDS011;12420;42.676;23.262;2023-12-14T10:14:35;11.67;;;6.83;;
12076;SDS011;12420;42.676;23.262;2023-12-14T10:17:13;13.83;;;6.20;;
12076;SDS011;12420;42.676;23.262;2023-12-14T10:19:43;11.20;;;5.87;;
12076;SDS011;12420;42.676;23.262;2023-12-14T10:22:11;33.67;;;17.27;;
12076;SDS011;12420;42.676;23.262;2023-12-14T10:24:42;22.20;;;12.37;;
12076;SDS011;12420;42.676;23.262;2023-12-14T10:27:09;25.30;;;11.87;;
12076;SDS011;12420;42.676;23.262;2023-12-14T10:29:36;14.03;;;8.43;;
12076;SDS011;12420;42.676;23.262;2023-12-14T10:32:04;9.67;;;7.57;;
12076;SDS011;12420;42.676;23.262;2023-12-14T10:34:32;15.97;;;8.47;;
12076;SDS011;12420;42.676;23.262;2023-12-14T10:37:00;14.83;;;8.37;;
12076;SDS011;12420;42.676;23.262;2023-12-14T10:39:30;11.63;;;8.60;;
12076;SDS011;12420;42.676;23.262;2023-12-14T10:41:57;11.93;;;9.10;;
12076;SDS011;12420;42.676;23.262;2023-12-14T10:44:26;22.60;;;11.90;;
12076;SDS011;12420;42.676;23.262;2023-12-14T10:46:54;20.30;;;11.57;;
12076;SDS011;12420;42.676;23.262;2023-12-14T10:49:22;18.33;;;10.23;;
12076;SDS011;12420;42.676;23.262;2023-12-14T10:51:50;10.83;;;8.37;;
12076;SDS011;12420;42.676;23.262;2023-12-14T10:54:21;7.90;;;6.93;;
12076;SDS011;12420;42.676;23.262;2023-12-14T10:56:49;7.37;;;5.27;;
12076;SDS011;12420;42.676;23.262;2023-12-14T10:59:20;6.30;;;4.80;;
12076;SDS011;12420;42.676;23.262;2023-12-14T11:01:51;5.80;;;4.90;;
12076;SDS011;12420;42.676;23.262;2023-12-14T11:04:18;7.77;;;5.63;;
12076;SDS011;12420;42.676;23.262;2023-12-14T11:06:45;7.37;;;4.13;;
12076;SDS011;12420;42.676;23.262;2023-12-14T11:09:13;5.03;;;3.57;;
12076;SDS011;12420;42.676;23.262;2023-12-14T11:11:55;7.73;;;3.00;;
12076;SDS011;12420;42.676;23.262;2023-12-14T11:14:24;3.97;;;3.10;;
12076;SDS011;12420;42.676;23.262;2023-12-14T11:16:54;3.37;;;2.33;;
12076;SDS011;12420;42.676;23.262;2023-12-14T11:19:24;3.57;;;2.30;;
12076;SDS011;12420;42.676;23.262;2023-12-14T11:22:12;4.97;;;2.90;;
12076;SDS011;12420;42.676;23.262;2023-12-14T11:24:52;7.87;;;2.97;;
12076;SDS011;12420;42.676;23.262;2023-12-14T11:27:22;3.77;;;2.47;;
12076;SDS011;12420;42.676;23.262;2023-12-14T11:29:53;2.40;;;2.20;;
12076;SDS011;12420;42.676;23.262;2023-12-14T11:32:20;2.40;;;1.97;;
12076;SDS011;12420;42.676;23.262;2023-12-14T11:34:47;2.10;;;1.90;;
12076;SDS011;12420;42.676;23.262;2023-12-14T11:37:13;3.03;;;2.10;;
12076;SDS011;12420;42.676;23.262;2023-12-14T11:39:40;3.23;;;1.50;;
12076;SDS011;12420;42.676;23.262;2023-12-14T11:42:09;1.20;;;1.10;;
12076;SDS011;12420;42.676;23.262;2023-12-14T11:44:38;3.13;;;1.10;;
12076;SDS011;12420;42.676;23.262;2023-12-14T11:47:07;2.40;;;1.10;;
12076;SDS011;12420;42.676;23.262;2023-12-14T11:49:34;1.27;;;1.10;;
12076;SDS011;12420;42.676;23.262;2023-12-14T11:52:02;1.30;;;1.20;;
12076;SDS011;12420;42.676;23.262;2023-12-14T11:54:30;1.57;;;1.17;;
12076;SDS011;12420;42.676;23.262;2023-12-14T11:56:57;8.23;;;1.43;;
12076;SDS011;12420;42.676;23.262;2023-12-14T11:59:27;1.57;;;1.00;;
12076;SDS011;12420;42.676;23.262;2023-12-14T12:01:56;2.10;;;1.20;;
12076;SDS011;12420;42.676;23.262;2023-12-14T12:04:24;1.37;;;1.27;;
12076;SDS011;12420;42.676;23.262;2023-12-14T12:06:58;1.40;;;1.30;;
12076;SDS011;12420;42.676;23.262;2023-12-14T12:09:36;2.30;;;1.53;;
12076;SDS011;12420;42.676;23.262;2023-12-14T12:12:06;2.33;;;1.00;;
12076;SDS011;12420;42.676;23.262;2023-12-14T12:14:34;0.50;;;0.50;;
12076;SDS011;12420;42.676;23.262;2023-12-14T12:17:04;1.60;;;1.10;;
12076;SDS011;12420;42.676;23.262;2023-12-14T12:19:32;1.20;;;1.10;;
12076;SDS011;12420;42.676;23.262;2023-12-14T12:21:59;3.03;;;1.90;;
12076;SDS011;12420;42.676;23.262;2023-12-14T12:24:26;1.90;;;1.50;;
12076;SDS011;12420;42.676;23.262;2023-12-14T12:26:53;0.87;;;0.53;;
12076;SDS011;12420;42.676;23.262;2023-12-14T12:29:20;1.13;;;0.80;;
12076;SDS011;12420;42.676;23.262;2023-12-14T12:31:47;1.10;;;1.03;;
12076;SDS011;12420;42.676;23.262;2023-12-14T12:34:15;1.97;;;1.00;;
12076;SDS011;12420;42.676;23.262;2023-12-14T12:36:41;2.20;;;1.00;;
12076;SDS011;12420;42.676;23.262;2023-12-14T12:39:08;1.00;;;1.00;;
12076;SDS011;12420;42.676;23.262;2023-12-14T12:41:35;3.70;;;1.50;;
12076;SDS011;12420;42.676;23.262;2023-12-14T12:44:02;2.03;;;1.27;;
12076;SDS011;12420;42.676;23.262;2023-12-14T12:46:31;1.67;;;1.47;;
12076;SDS011;12420;42.676;23.262;2023-12-14T12:48:59;1.30;;;1.20;;
12076;SDS011;12420;42.676;23.262;2023-12-14T12:51:29;1.83;;;1.73;;
12076;SDS011;12420;42.676;23.262;2023-12-14T12:53:56;2.50;;;1.57;;
12076;SDS011;12420;42.676;23.262;2023-12-14T12:56:23;1.27;;;1.00;;
12076;SDS011;12420;42.676;23.262;2023-12-14T12:58:50;1.10;;;1.00;;
12076;SDS011;12420;42.676;23.262;2023-12-14T13:01:19;0.90;;;0.90;;
12076;SDS011;12420;42.676;23.262;2023-12-14T13:03:46;0.80;;;0.80;;
12076;SDS011;12420;42.676;23.262;2023-12-14T13:06:12;0.80;;;0.80;;
12076;SDS011;12420;42.676;23.262;2023-12-14T13:08:41;2.53;;;0.83;;
12076;SDS011;12420;42.676;23.262;2023-12-14T13:11:07;1.50;;;0.50;;
12076;SDS011;12420;42.676;23.262;2023-12-14T13:13:34;0.77;;;0.77;;
12076;SDS011;12420;42.676;23.262;2023-12-14T13:16:01;2.13;;;0.90;;
12076;SDS011;12420;42.676;23.262;2023-12-14T13:18:28;0.53;;;0.53;;
12076;SDS011;12420;42.676;23.262;2023-12-14T13:20:54;2.00;;;0.90;;
12076;SDS011;12420;42.676;23.262;2023-12-14T13:23:22;5.60;;;1.50;;
12076;SDS011;12420;42.676;23.262;2023-12-14T13:25:50;1.20;;;1.10;;
12076;SDS011;12420;42.676;23.262;2023-12-14T13:28:17;0.63;;;0.63;;
12076;SDS011;12420;42.676;23.262;2023-12-14T13:30:44;1.33;;;1.20;;
12076;SDS011;12420;42.676;23.262;2023-12-14T13:33:11;1.00;;;1.00;;
12076;SDS011;12420;42.676;23.262;2023-12-14T13:35:37;1.40;;;1.30;;
12076;SDS011;12420;42.676;23.262;2023-12-14T13:38:04;1.83;;;1.37;;
12076;SDS011;12420;42.676;23.262;2023-12-14T13:40:31;1.10;;;1.00;;
12076;SDS011;12420;42.676;23.262;2023-12-14T13:43:01;0.73;;;0.70;;
12076;SDS011;12420;42.676;23.262;2023-12-14T13:45:35;1.00;;;0.90;;
12076;SDS011;12420;42.676;23.262;2023-12-14T13:48:02;1.23;;;1.00;;
12076;SDS011;12420;42.676;23.262;2023-12-14T13:50:30;2.07;;;1.63;;
12076;SDS011;12420;42.676;23.262;2023-12-14T13:52:57;1.30;;;1.20;;
12076;SDS011;12420;42.676;23.262;2023-12-14T13:55:23;1.67;;;1.10;;
12076;SDS011;12420;42.676;23.262;2023-12-14T13:57:50;1.40;;;1.30;;
12076;SDS011;12420;42.676;23.262;2023-12-14T14:00:19;1.70;;;1.60;;
12076;SDS011;12420;42.676;23.262;2023-12-14T14:02:46;2.07;;;1.47;;
12076;SDS011;12420;42.676;23.262;2023-12-14T14:05:13;3.80;;;1.40;;
12076;SDS011;12420;42.676;23.262;2023-12-14T14:07:40;1.47;;;1.37;;
12076;SDS011;12420;42.676;23.262;2023-12-14T14:10:07;2.00;;;1.10;;
12076;SDS011;12420;42.676;23.262;2023-12-14T14:12:35;2.10;;;1.43;;
12076;SDS011;12420;42.676;23.262;2023-12-14T14:15:01;1.93;;;1.40;;
12076;SDS011;12420;42.676;23.262;2023-12-14T14:17:30;3.03;;;1.50;;
12076;SDS011;12420;42.676;23.262;2023-12-14T14:19:57;3.63;;;1.90;;
12076;SDS011;12420;42.676;23.262;2023-12-14T14:22:23;3.57;;;1.73;;
12076;SDS011;12420;42.676;23.262;2023-12-14T14:24:50;6.83;;;3.40;;